Hauptseite
METAR-TAF:

METAR-TAF

Flughäfen :

Oberpfaffenhofen, Deutschland

Flugplatz Oberpfaffenhofen

Breite: 48-05N, Länge: 011-17E, Höhe: 600 m

Beobachtung

Neuester Wetterbericht von vor 9 Stunden und 14 Minuten, um 18:20 UTC
Wind 6 kt aus West/Nordwest
Temperatur 20°C
Luftfeuchtigkeit 46%
Luftdruck 1022 hPa
Sichtweite 10 km oder mehr
keine Wolken unter 1500 m und keine Kumulonimbus oder Gewitterwolken

METAR: EDMO 201820Z 29006KT CAVOK 20/08 Q1022

Zeit: 05:34 (03:34 UTC)

Prognose

Neuester Wetterbericht von vor 10 Stunden und 34 Minuten, um 17:00 UTC
Gültige Prognose vom 20 um 18 UTC bis 21 um 03 UTC
Wind 3 kt aus unterschiedlichen Richtungen
Sichtweite 10 km oder mehr
keine Wolken unter 1500 m und keine Kumulonimbus oder Gewitterwolken

TAF: EDMO 201700Z 2018/2103 VRB03KT CAVOK

Wetterbeobachtungen und Prognosen von mehr als 4000 Flughäfen (METAR und TAF Bericht).

Die verfügbaren Stationen werden durch gelbe und rote Markierungen auf der Karte dargestellt.

Führen Sie die Maus auf sie, um den Namen der Station zu sehen.

Darauf klicken, um die Beobachtung von Wetterbeobachtungen und Prognosen zu sehen.

Um die Karte zu ändern : klicken Sie auf den grünen Tasten mit einem schwarzen Kreuz Zum Vergrößern, auf den grünen Button mit einem Gedankenstrich zu verkleinern, oder auf die grünen Pfeile für benachbarte Karten.


METAR-TAF: